sensor_id;sensor_type;location;lat;lon;timestamp;temperature;humidity
62339;DHT22;48368;53.406;6.214;2024-01-27T00:01:55;4.70;99.90
62339;DHT22;48368;53.406;6.214;2024-01-27T00:04:20;4.70;99.90
62339;DHT22;48368;53.406;6.214;2024-01-27T00:06:46;4.70;99.90
62339;DHT22;48368;53.406;6.214;2024-01-27T00:09:11;4.60;99.90
62339;DHT22;48368;53.406;6.214;2024-01-27T00:11:37;4.60;99.90
62339;DHT22;48368;53.406;6.214;2024-01-27T00:14:05;4.60;99.90
62339;DHT22;48368;53.406;6.214;2024-01-27T00:16:30;4.60;99.90
62339;DHT22;48368;53.406;6.214;2024-01-27T00:18:56;4.60;99.90
62339;DHT22;48368;53.406;6.214;2024-01-27T00:21:21;4.60;99.90
62339;DHT22;48368;53.406;6.214;2024-01-27T00:23:47;4.60;99.90
62339;DHT22;48368;53.406;6.214;2024-01-27T00:26:12;4.60;99.90
62339;DHT22;48368;53.406;6.214;2024-01-27T00:28:38;4.50;99.90
62339;DHT22;48368;53.406;6.214;2024-01-27T00:31:04;4.50;99.90
62339;DHT22;48368;53.406;6.214;2024-01-27T00:33:29;4.50;99.90
62339;DHT22;48368;53.406;6.214;2024-01-27T00:35:55;4.50;99.90
62339;DHT22;48368;53.406;6.214;2024-01-27T00:38:21;4.50;99.90
62339;DHT22;48368;53.406;6.214;2024-01-27T00:40:46;4.50;99.90
62339;DHT22;48368;53.406;6.214;2024-01-27T00:43:12;4.50;99.90
62339;DHT22;48368;53.406;6.214;2024-01-27T00:45:38;4.50;99.90
62339;DHT22;48368;53.406;6.214;2024-01-27T00:48:04;4.60;99.90
62339;DHT22;48368;53.406;6.214;2024-01-27T00:50:30;4.50;99.90
62339;DHT22;48368;53.406;6.214;2024-01-27T00:52:55;4.60;99.90
62339;DHT22;48368;53.406;6.214;2024-01-27T00:55:21;4.60;99.90
62339;DHT22;48368;53.406;6.214;2024-01-27T00:57:47;4.70;99.90
62339;DHT22;48368;53.406;6.214;2024-01-27T01:00:13;4.70;99.90
62339;DHT22;48368;53.406;6.214;2024-01-27T01:02:38;4.60;99.90
62339;DHT22;48368;53.406;6.214;2024-01-27T01:05:06;4.60;99.90
62339;DHT22;48368;53.406;6.214;2024-01-27T01:07:32;4.60;99.90
62339;DHT22;48368;53.406;6.214;2024-01-27T01:09:58;4.50;99.90
62339;DHT22;48368;53.406;6.214;2024-01-27T01:12:30;4.60;99.90
62339;DHT22;48368;53.406;6.214;2024-01-27T01:14:55;4.50;99.90
62339;DHT22;48368;53.406;6.214;2024-01-27T01:17:22;4.40;99.90
62339;DHT22;48368;53.406;6.214;2024-01-27T01:19:47;4.40;99.90
62339;DHT22;48368;53.406;6.214;2024-01-27T01:22:13;4.40;99.90
62339;DHT22;48368;53.406;6.214;2024-01-27T01:24:38;4.30;99.90
62339;DHT22;48368;53.406;6.214;2024-01-27T01:27:04;4.30;99.90
62339;DHT22;48368;53.406;6.214;2024-01-27T01:29:31;4.30;99.90
62339;DHT22;48368;53.406;6.214;2024-01-27T01:31:56;4.30;99.90
62339;DHT22;48368;53.406;6.214;2024-01-27T01:34:25;4.20;99.90
62339;DHT22;48368;53.406;6.214;2024-01-27T01:36:50;4.20;99.90
62339;DHT22;48368;53.406;6.214;2024-01-27T01:39:16;4.20;99.90
62339;DHT22;48368;53.406;6.214;2024-01-27T01:41:42;4.20;99.90
62339;DHT22;48368;53.406;6.214;2024-01-27T01:44:07;4.10;99.90
62339;DHT22;48368;53.406;6.214;2024-01-27T01:46:34;4.20;99.90
62339;DHT22;48368;53.406;6.214;2024-01-27T01:49:03;4.10;99.90
62339;DHT22;48368;53.406;6.214;2024-01-27T01:51:28;4.10;99.90
62339;DHT22;48368;53.406;6.214;2024-01-27T01:53:58;4.10;99.90
62339;DHT22;48368;53.406;6.214;2024-01-27T01:56:24;4.00;99.90
62339;DHT22;48368;53.406;6.214;2024-01-27T01:58:50;4.10;99.90
62339;DHT22;48368;53.406;6.214;2024-01-27T02:01:19;4.00;99.90
62339;DHT22;48368;53.406;6.214;2024-01-27T02:03:56;4.10;99.90
62339;DHT22;48368;53.406;6.214;2024-01-27T02:06:23;4.00;99.90
62339;DHT22;48368;53.406;6.214;2024-01-27T02:08:48;4.00;99.90
62339;DHT22;48368;53.406;6.214;2024-01-27T02:11:20;4.10;99.90
62339;DHT22;48368;53.406;6.214;2024-01-27T02:13:47;4.10;99.90
62339;DHT22;48368;53.406;6.214;2024-01-27T02:16:14;4.10;99.90
62339;DHT22;48368;53.406;6.214;2024-01-27T02:18:43;4.10;99.90
62339;DHT22;48368;53.406;6.214;2024-01-27T02:21:08;4.00;99.90
62339;DHT22;48368;53.406;6.214;2024-01-27T02:23:34;4.00;99.90
62339;DHT22;48368;53.406;6.214;2024-01-27T02:26:00;4.10;99.90
62339;DHT22;48368;53.406;6.214;2024-01-27T02:28:25;4.00;99.90
62339;DHT22;48368;53.406;6.214;2024-01-27T02:30:51;4.00;99.90
62339;DHT22;48368;53.406;6.214;2024-01-27T02:33:17;4.00;99.90
62339;DHT22;48368;53.406;6.214;2024-01-27T02:35:42;4.10;99.90
62339;DHT22;48368;53.406;6.214;2024-01-27T02:38:09;4.10;99.90
62339;DHT22;48368;53.406;6.214;2024-01-27T02:40:34;4.00;99.90
62339;DHT22;48368;53.406;6.214;2024-01-27T02:43:00;4.00;99.90
62339;DHT22;48368;53.406;6.214;2024-01-27T02:45:26;4.00;99.90
62339;DHT22;48368;53.406;6.214;2024-01-27T02:47:52;4.00;99.90
62339;DHT22;48368;53.406;6.214;2024-01-27T02:50:20;4.00;99.90
62339;DHT22;48368;53.406;6.214;2024-01-27T02:52:46;3.90;99.90
62339;DHT22;48368;53.406;6.214;2024-01-27T02:55:12;3.90;99.90
62339;DHT22;48368;53.406;6.214;2024-01-27T02:57:40;3.90;99.90
62339;DHT22;48368;53.406;6.214;2024-01-27T03:00:06;3.90;99.90
62339;DHT22;48368;53.406;6.214;2024-01-27T03:02:33;3.90;99.90
62339;DHT22;48368;53.406;6.214;2024-01-27T03:04:58;3.80;99.90
62339;DHT22;48368;53.406;6.214;2024-01-27T03:07:24;3.80;99.90
62339;DHT22;48368;53.406;6.214;2024-01-27T03:09:50;3.80;99.90
62339;DHT22;48368;53.406;6.214;2024-01-27T03:12:17;3.80;99.90
62339;DHT22;48368;53.406;6.214;2024-01-27T03:14:44;3.80;99.90
62339;DHT22;48368;53.406;6.214;2024-01-27T03:17:11;3.80;99.90
62339;DHT22;48368;53.406;6.214;2024-01-27T03:19:37;3.70;99.90
62339;DHT22;48368;53.406;6.214;2024-01-27T03:22:02;3.70;99.90
62339;DHT22;48368;53.406;6.214;2024-01-27T03:24:28;3.80;99.90
62339;DHT22;48368;53.406;6.214;2024-01-27T03:26:54;3.70;99.90
62339;DHT22;48368;53.406;6.214;2024-01-27T03:29:19;3.70;99.90
62339;DHT22;48368;53.406;6.214;2024-01-27T03:31:45;3.70;99.90
62339;DHT22;48368;53.406;6.214;2024-01-27T03:34:11;3.70;99.90
62339;DHT22;48368;53.406;6.214;2024-01-27T03:36:36;3.70;99.90
62339;DHT22;48368;53.406;6.214;2024-01-27T03:39:02;3.70;99.90
62339;DHT22;48368;53.406;6.214;2024-01-27T03:41:28;3.70;99.90
62339;DHT22;48368;53.406;6.214;2024-01-27T03:43:54;3.60;99.90
62339;DHT22;48368;53.406;6.214;2024-01-27T03:46:20;3.60;99.90
62339;DHT22;48368;53.406;6.214;2024-01-27T03:48:45;3.60;99.90
62339;DHT22;48368;53.406;6.214;2024-01-27T03:51:11;3.60;99.90
62339;DHT22;48368;53.406;6.214;2024-01-27T03:53:37;3.60;99.90
62339;DHT22;48368;53.406;6.214;2024-01-27T03:56:02;3.60;99.90
62339;DHT22;48368;53.406;6.214;2024-01-27T03:58:30;3.60;99.90
62339;DHT22;48368;53.406;6.214;2024-01-27T04:00:56;3.60;99.90
62339;DHT22;48368;53.406;6.214;2024-01-27T04:03:22;3.70;99.90
62339;DHT22;48368;53.406;6.214;2024-01-27T04:05:48;3.60;99.90
62339;DHT22;48368;53.406;6.214;2024-01-27T04:08:14;3.60;99.90
62339;DHT22;48368;53.406;6.214;2024-01-27T04:10:41;3.60;99.90
62339;DHT22;48368;53.406;6.214;2024-01-27T04:13:07;3.60;99.90
62339;DHT22;48368;53.406;6.214;2024-01-27T04:15:34;3.60;99.90
62339;DHT22;48368;53.406;6.214;2024-01-27T04:18:05;3.60;99.90
62339;DHT22;48368;53.406;6.214;2024-01-27T04:20:31;3.60;99.90
62339;DHT22;48368;53.406;6.214;2024-01-27T04:22:56;3.50;99.90
62339;DHT22;48368;53.406;6.214;2024-01-27T04:25:22;3.50;99.90
62339;DHT22;48368;53.406;6.214;2024-01-27T04:27:48;3.50;99.90
62339;DHT22;48368;53.406;6.214;2024-01-27T04:30:13;3.40;99.90
62339;DHT22;48368;53.406;6.214;2024-01-27T04:32:39;3.40;99.90
62339;DHT22;48368;53.406;6.214;2024-01-27T04:35:08;3.40;99.90
62339;DHT22;48368;53.406;6.214;2024-01-27T04:37:34;3.40;99.90
62339;DHT22;48368;53.406;6.214;2024-01-27T04:40:00;3.40;99.90
62339;DHT22;48368;53.406;6.214;2024-01-27T04:42:25;3.40;99.90
62339;DHT22;48368;53.406;6.214;2024-01-27T04:44:51;3.40;99.90
62339;DHT22;48368;53.406;6.214;2024-01-27T04:47:17;3.50;99.90
62339;DHT22;48368;53.406;6.214;2024-01-27T04:49:42;3.50;99.90
62339;DHT22;48368;53.406;6.214;2024-01-27T04:52:08;3.50;99.90
62339;DHT22;48368;53.406;6.214;2024-01-27T04:54:33;3.40;99.90
62339;DHT22;48368;53.406;6.214;2024-01-27T04:56:59;3.40;99.90
62339;DHT22;48368;53.406;6.214;2024-01-27T04:59:25;3.40;99.90
62339;DHT22;48368;53.406;6.214;2024-01-27T05:01:50;3.40;99.90
62339;DHT22;48368;53.406;6.214;2024-01-27T05:04:16;3.30;99.90
62339;DHT22;48368;53.406;6.214;2024-01-27T05:06:45;3.30;99.90
62339;DHT22;48368;53.406;6.214;2024-01-27T05:09:11;3.30;99.90
62339;DHT22;48368;53.406;6.214;2024-01-27T05:11:38;3.20;99.90
62339;DHT22;48368;53.406;6.214;2024-01-27T05:14:04;3.30;99.90
62339;DHT22;48368;53.406;6.214;2024-01-27T05:16:31;3.30;99.90
62339;DHT22;48368;53.406;6.214;2024-01-27T05:18:58;3.20;99.90
62339;DHT22;48368;53.406;6.214;2024-01-27T05:21:24;3.30;99.90
62339;DHT22;48368;53.406;6.214;2024-01-27T05:23:50;3.30;99.90
62339;DHT22;48368;53.406;6.214;2024-01-27T05:26:15;3.30;99.90
62339;DHT22;48368;53.406;6.214;2024-01-27T05:28:41;3.30;99.90
62339;DHT22;48368;53.406;6.214;2024-01-27T05:31:07;3.20;99.90
62339;DHT22;48368;53.406;6.214;2024-01-27T05:33:33;3.20;99.90
62339;DHT22;48368;53.406;6.214;2024-01-27T05:35:59;3.20;99.90
62339;DHT22;48368;53.406;6.214;2024-01-27T05:38:24;3.20;99.90
62339;DHT22;48368;53.406;6.214;2024-01-27T05:40:51;3.20;99.90
62339;DHT22;48368;53.406;6.214;2024-01-27T05:43:17;3.20;99.90
62339;DHT22;48368;53.406;6.214;2024-01-27T05:45:46;3.20;99.90
62339;DHT22;48368;53.406;6.214;2024-01-27T05:48:12;3.20;99.90
62339;DHT22;48368;53.406;6.214;2024-01-27T05:50:41;3.10;99.90
62339;DHT22;48368;53.406;6.214;2024-01-27T05:53:07;3.20;99.90
62339;DHT22;48368;53.406;6.214;2024-01-27T05:55:32;3.20;99.90
62339;DHT22;48368;53.406;6.214;2024-01-27T05:57:59;3.20;99.90
62339;DHT22;48368;53.406;6.214;2024-01-27T06:00:27;3.20;99.90
62339;DHT22;48368;53.406;6.214;2024-01-27T06:02:53;3.20;99.90
62339;DHT22;48368;53.406;6.214;2024-01-27T06:05:20;3.20;99.90
62339;DHT22;48368;53.406;6.214;2024-01-27T06:07:45;3.20;99.90
62339;DHT22;48368;53.406;6.214;2024-01-27T06:10:18;3.10;99.90
62339;DHT22;48368;53.406;6.214;2024-01-27T06:12:43;3.10;99.90
62339;DHT22;48368;53.406;6.214;2024-01-27T06:15:09;3.10;99.90
62339;DHT22;48368;53.406;6.214;2024-01-27T06:17:37;3.10;99.90
62339;DHT22;48368;53.406;6.214;2024-01-27T06:20:03;3.00;99.90
62339;DHT22;48368;53.406;6.214;2024-01-27T06:22:29;3.10;99.90
62339;DHT22;48368;53.406;6.214;2024-01-27T06:25:00;3.00;99.90
62339;DHT22;48368;53.406;6.214;2024-01-27T06:27:25;3.00;99.90
62339;DHT22;48368;53.406;6.214;2024-01-27T06:29:51;3.00;99.90
62339;DHT22;48368;53.406;6.214;2024-01-27T06:32:17;3.10;99.90
62339;DHT22;48368;53.406;6.214;2024-01-27T06:34:43;3.10;99.90
62339;DHT22;48368;53.406;6.214;2024-01-27T06:37:09;3.10;99.90
62339;DHT22;48368;53.406;6.214;2024-01-27T06:39:34;3.10;99.90
62339;DHT22;48368;53.406;6.214;2024-01-27T06:42:00;3.10;99.90
62339;DHT22;48368;53.406;6.214;2024-01-27T06:44:25;3.10;99.90
62339;DHT22;48368;53.406;6.214;2024-01-27T06:46:51;3.10;99.90
62339;DHT22;48368;53.406;6.214;2024-01-27T06:49:17;3.10;99.90
62339;DHT22;48368;53.406;6.214;2024-01-27T06:51:43;3.10;99.90
62339;DHT22;48368;53.406;6.214;2024-01-27T06:54:09;3.10;99.90
62339;DHT22;48368;53.406;6.214;2024-01-27T06:56:35;3.00;99.90
62339;DHT22;48368;53.406;6.214;2024-01-27T06:59:00;3.00;99.90
62339;DHT22;48368;53.406;6.214;2024-01-27T07:01:26;3.00;99.90
62339;DHT22;48368;53.406;6.214;2024-01-27T07:03:52;3.00;99.90
62339;DHT22;48368;53.406;6.214;2024-01-27T07:06:17;3.00;99.90
62339;DHT22;48368;53.406;6.214;2024-01-27T07:08:43;3.00;99.90
62339;DHT22;48368;53.406;6.214;2024-01-27T07:11:10;3.00;99.90
62339;DHT22;48368;53.406;6.214;2024-01-27T07:13:36;3.00;99.90
62339;DHT22;48368;53.406;6.214;2024-01-27T07:16:03;3.00;99.90
62339;DHT22;48368;53.406;6.214;2024-01-27T07:18:28;3.00;99.90
62339;DHT22;48368;53.406;6.214;2024-01-27T07:20:57;3.00;99.90
62339;DHT22;48368;53.406;6.214;2024-01-27T07:23:25;3.00;99.90
62339;DHT22;48368;53.406;6.214;2024-01-27T07:25:50;3.00;99.90
62339;DHT22;48368;53.406;6.214;2024-01-27T07:28:16;2.90;99.90
62339;DHT22;48368;53.406;6.214;2024-01-27T07:30:44;2.90;99.90
62339;DHT22;48368;53.406;6.214;2024-01-27T07:33:10;2.90;99.90
62339;DHT22;48368;53.406;6.214;2024-01-27T07:35:35;2.90;99.90
62339;DHT22;48368;53.406;6.214;2024-01-27T07:38:01;2.90;99.90
62339;DHT22;48368;53.406;6.214;2024-01-27T07:40:33;2.90;99.90
62339;DHT22;48368;53.406;6.214;2024-01-27T07:42:58;2.90;99.90
62339;DHT22;48368;53.406;6.214;2024-01-27T07:45:24;2.90;99.90
62339;DHT22;48368;53.406;6.214;2024-01-27T07:47:50;2.90;99.90
62339;DHT22;48368;53.406;6.214;2024-01-27T07:50:15;2.90;99.90
62339;DHT22;48368;53.406;6.214;2024-01-27T07:52:41;2.90;99.90
62339;DHT22;48368;53.406;6.214;2024-01-27T07:55:07;2.90;99.90
62339;DHT22;48368;53.406;6.214;2024-01-27T07:57:33;3.00;99.90
62339;DHT22;48368;53.406;6.214;2024-01-27T07:59:59;3.00;99.90
62339;DHT22;48368;53.406;6.214;2024-01-27T08:02:24;3.00;99.90
62339;DHT22;48368;53.406;6.214;2024-01-27T08:04:53;3.00;99.90
62339;DHT22;48368;53.406;6.214;2024-01-27T08:07:18;3.00;99.90
62339;DHT22;48368;53.406;6.214;2024-01-27T08:09:52;3.00;99.90
62339;DHT22;48368;53.406;6.214;2024-01-27T08:12:17;3.10;99.90
62339;DHT22;48368;53.406;6.214;2024-01-27T08:14:44;3.10;99.90
62339;DHT22;48368;53.406;6.214;2024-01-27T08:17:10;3.10;99.90
62339;DHT22;48368;53.406;6.214;2024-01-27T08:19:36;3.10;99.90
62339;DHT22;48368;53.406;6.214;2024-01-27T08:22:02;3.20;99.90
62339;DHT22;48368;53.406;6.214;2024-01-27T08:24:28;3.20;99.90
62339;DHT22;48368;53.406;6.214;2024-01-27T08:26:54;3.30;99.90
62339;DHT22;48368;53.406;6.214;2024-01-27T08:29:20;3.30;99.90
62339;DHT22;48368;53.406;6.214;2024-01-27T08:31:45;3.30;99.90
62339;DHT22;48368;53.406;6.214;2024-01-27T08:34:11;3.30;99.90
62339;DHT22;48368;53.406;6.214;2024-01-27T08:36:38;3.40;99.90
62339;DHT22;48368;53.406;6.214;2024-01-27T08:39:03;3.40;99.90
62339;DHT22;48368;53.406;6.214;2024-01-27T08:41:31;3.50;99.90
62339;DHT22;48368;53.406;6.214;2024-01-27T08:43:56;3.50;99.90
62339;DHT22;48368;53.406;6.214;2024-01-27T08:46:22;3.50;99.90
62339;DHT22;48368;53.406;6.214;2024-01-27T08:48:48;3.50;99.90
62339;DHT22;48368;53.406;6.214;2024-01-27T08:51:14;3.60;99.90
62339;DHT22;48368;53.406;6.214;2024-01-27T08:53:41;3.70;99.90
62339;DHT22;48368;53.406;6.214;2024-01-27T08:56:07;3.70;99.90
62339;DHT22;48368;53.406;6.214;2024-01-27T08:58:33;3.80;99.90
62339;DHT22;48368;53.406;6.214;2024-01-27T09:00:59;3.80;99.90
62339;DHT22;48368;53.406;6.214;2024-01-27T09:03:30;3.80;99.90
62339;DHT22;48368;53.406;6.214;2024-01-27T09:05:56;4.00;99.90
62339;DHT22;48368;53.406;6.214;2024-01-27T09:08:22;4.00;99.90
62339;DHT22;48368;53.406;6.214;2024-01-27T09:10:49;4.00;99.90
62339;DHT22;48368;53.406;6.214;2024-01-27T09:13:17;4.10;99.90
62339;DHT22;48368;53.406;6.214;2024-01-27T09:15:44;4.20;99.90
62339;DHT22;48368;53.406;6.214;2024-01-27T09:18:09;4.20;99.90
62339;DHT22;48368;53.406;6.214;2024-01-27T09:20:35;4.30;99.90
62339;DHT22;48368;53.406;6.214;2024-01-27T09:23:00;4.40;99.90
62339;DHT22;48368;53.406;6.214;2024-01-27T09:25:26;4.40;99.90
62339;DHT22;48368;53.406;6.214;2024-01-27T09:27:53;4.60;99.90
62339;DHT22;48368;53.406;6.214;2024-01-27T09:30:19;4.60;99.90
62339;DHT22;48368;53.406;6.214;2024-01-27T09:32:46;4.70;99.90
62339;DHT22;48368;53.406;6.214;2024-01-27T09:35:11;4.70;99.90
62339;DHT22;48368;53.406;6.214;2024-01-27T09:37:37;4.80;99.90
62339;DHT22;48368;53.406;6.214;2024-01-27T09:40:09;4.90;99.90
62339;DHT22;48368;53.406;6.214;2024-01-27T09:42:35;5.00;99.90
62339;DHT22;48368;53.406;6.214;2024-01-27T09:45:05;5.00;99.90
62339;DHT22;48368;53.406;6.214;2024-01-27T09:47:31;5.10;99.90
62339;DHT22;48368;53.406;6.214;2024-01-27T09:49:56;5.20;99.90
62339;DHT22;48368;53.406;6.214;2024-01-27T09:52:22;5.30;99.90
62339;DHT22;48368;53.406;6.214;2024-01-27T09:54:49;5.50;99.90
62339;DHT22;48368;53.406;6.214;2024-01-27T09:57:15;5.50;99.90
62339;DHT22;48368;53.406;6.214;2024-01-27T09:59:41;5.60;99.90
62339;DHT22;48368;53.406;6.214;2024-01-27T10:02:11;5.70;99.90
62339;DHT22;48368;53.406;6.214;2024-01-27T10:04:38;5.80;99.90
62339;DHT22;48368;53.406;6.214;2024-01-27T10:07:04;5.90;99.90
62339;DHT22;48368;53.406;6.214;2024-01-27T10:09:29;6.00;99.90
62339;DHT22;48368;53.406;6.214;2024-01-27T10:11:56;6.10;99.90
62339;DHT22;48368;53.406;6.214;2024-01-27T10:14:22;6.20;99.90
62339;DHT22;48368;53.406;6.214;2024-01-27T10:16:48;6.30;99.90
62339;DHT22;48368;53.406;6.214;2024-01-27T10:19:18;6.40;99.90
62339;DHT22;48368;53.406;6.214;2024-01-27T10:21:45;6.40;99.90
62339;DHT22;48368;53.406;6.214;2024-01-27T10:24:11;6.60;99.90
62339;DHT22;48368;53.406;6.214;2024-01-27T10:26:37;6.70;99.90
62339;DHT22;48368;53.406;6.214;2024-01-27T10:29:03;6.70;99.90
62339;DHT22;48368;53.406;6.214;2024-01-27T10:31:34;6.90;99.90
62339;DHT22;48368;53.406;6.214;2024-01-27T10:34:00;7.00;99.90
62339;DHT22;48368;53.406;6.214;2024-01-27T10:36:37;7.10;99.90
62339;DHT22;48368;53.406;6.214;2024-01-27T10:39:22;7.20;99.90
62339;DHT22;48368;53.406;6.214;2024-01-27T10:41:49;7.30;99.90
62339;DHT22;48368;53.406;6.214;2024-01-27T10:44:19;7.30;99.90
62339;DHT22;48368;53.406;6.214;2024-01-27T10:46:47;7.40;99.90
62339;DHT22;48368;53.406;6.214;2024-01-27T10:49:15;7.50;99.90
62339;DHT22;48368;53.406;6.214;2024-01-27T10:51:46;7.60;99.90
62339;DHT22;48368;53.406;6.214;2024-01-27T10:54:24;7.70;99.90
62339;DHT22;48368;53.406;6.214;2024-01-27T10:56:55;7.70;99.90
62339;DHT22;48368;53.406;6.214;2024-01-27T10:59:26;7.80;99.90
62339;DHT22;48368;53.406;6.214;2024-01-27T11:01:54;7.90;99.90
62339;DHT22;48368;53.406;6.214;2024-01-27T11:04:20;7.90;99.90
62339;DHT22;48368;53.406;6.214;2024-01-27T11:06:50;8.00;99.90
62339;DHT22;48368;53.406;6.214;2024-01-27T11:09:18;8.00;99.90
62339;DHT22;48368;53.406;6.214;2024-01-27T11:11:45;8.10;99.90
62339;DHT22;48368;53.406;6.214;2024-01-27T11:14:13;8.10;99.90
62339;DHT22;48368;53.406;6.214;2024-01-27T11:16:39;8.10;99.90
62339;DHT22;48368;53.406;6.214;2024-01-27T11:19:11;8.20;99.90
62339;DHT22;48368;53.406;6.214;2024-01-27T11:21:37;8.30;99.90
62339;DHT22;48368;53.406;6.214;2024-01-27T11:24:16;8.30;99.90
62339;DHT22;48368;53.406;6.214;2024-01-27T11:26:42;8.40;99.90
62339;DHT22;48368;53.406;6.214;2024-01-27T11:29:08;8.40;99.90
62339;DHT22;48368;53.406;6.214;2024-01-27T11:31:35;8.50;99.90
62339;DHT22;48368;53.406;6.214;2024-01-27T11:34:01;8.60;99.90
62339;DHT22;48368;53.406;6.214;2024-01-27T11:36:27;8.60;99.90
62339;DHT22;48368;53.406;6.214;2024-01-27T11:38:53;8.60;99.90
62339;DHT22;48368;53.406;6.214;2024-01-27T11:41:27;8.70;99.90
62339;DHT22;48368;53.406;6.214;2024-01-27T11:43:57;8.70;99.90
62339;DHT22;48368;53.406;6.214;2024-01-27T11:46:25;8.70;99.90
62339;DHT22;48368;53.406;6.214;2024-01-27T11:48:51;8.70;99.90
62339;DHT22;48368;53.406;6.214;2024-01-27T11:51:17;8.70;99.90
62339;DHT22;48368;53.406;6.214;2024-01-27T11:53:45;8.70;99.90
62339;DHT22;48368;53.406;6.214;2024-01-27T11:56:11;8.80;99.90
62339;DHT22;48368;53.406;6.214;2024-01-27T11:58:36;8.80;99.90
62339;DHT22;48368;53.406;6.214;2024-01-27T12:01:02;8.90;99.90
62339;DHT22;48368;53.406;6.214;2024-01-27T12:03:30;8.90;99.90
62339;DHT22;48368;53.406;6.214;2024-01-27T12:05:56;8.90;99.90
62339;DHT22;48368;53.406;6.214;2024-01-27T12:08:24;9.00;99.90
62339;DHT22;48368;53.406;6.214;2024-01-27T12:10:51;9.00;99.90
62339;DHT22;48368;53.406;6.214;2024-01-27T12:13:17;9.00;99.90
62339;DHT22;48368;53.406;6.214;2024-01-27T12:15:43;9.10;99.90
62339;DHT22;48368;53.406;6.214;2024-01-27T12:18:09;9.00;99.90
62339;DHT22;48368;53.406;6.214;2024-01-27T12:20:35;9.10;99.90
62339;DHT22;48368;53.406;6.214;2024-01-27T12:23:07;9.10;99.90
62339;DHT22;48368;53.406;6.214;2024-01-27T12:25:33;9.00;99.90
62339;DHT22;48368;53.406;6.214;2024-01-27T12:28:06;9.10;99.90
62339;DHT22;48368;53.406;6.214;2024-01-27T12:30:33;9.10;99.90
62339;DHT22;48368;53.406;6.214;2024-01-27T12:33:00;9.20;99.90
62339;DHT22;48368;53.406;6.214;2024-01-27T12:35:29;9.20;99.90
62339;DHT22;48368;53.406;6.214;2024-01-27T12:37:54;9.30;99.90
62339;DHT22;48368;53.406;6.214;2024-01-27T12:40:21;9.30;99.90
62339;DHT22;48368;53.406;6.214;2024-01-27T12:42:50;9.40;99.90
62339;DHT22;48368;53.406;6.214;2024-01-27T12:45:16;9.40;99.90
62339;DHT22;48368;53.406;6.214;2024-01-27T12:47:42;9.40;99.90
62339;DHT22;48368;53.406;6.214;2024-01-27T12:50:08;9.40;99.90
62339;DHT22;48368;53.406;6.214;2024-01-27T12:52:33;9.30;99.90
62339;DHT22;48368;53.406;6.214;2024-01-27T12:54:59;9.30;99.90
62339;DHT22;48368;53.406;6.214;2024-01-27T12:57:25;9.30;99.90
62339;DHT22;48368;53.406;6.214;2024-01-27T12:59:50;9.30;99.90
62339;DHT22;48368;53.406;6.214;2024-01-27T13:02:17;9.40;99.90
62339;DHT22;48368;53.406;6.214;2024-01-27T13:04:42;9.30;99.90
62339;DHT22;48368;53.406;6.214;2024-01-27T13:07:09;9.20;99.90
62339;DHT22;48368;53.406;6.214;2024-01-27T13:09:35;9.20;99.90
62339;DHT22;48368;53.406;6.214;2024-01-27T13:12:02;9.20;99.90
62339;DHT22;48368;53.406;6.214;2024-01-27T13:14:28;9.10;99.90
62339;DHT22;48368;53.406;6.214;2024-01-27T13:16:54;9.10;99.90
62339;DHT22;48368;53.406;6.214;2024-01-27T13:19:20;9.00;99.90
62339;DHT22;48368;53.406;6.214;2024-01-27T13:21:45;9.00;99.90
62339;DHT22;48368;53.406;6.214;2024-01-27T13:24:11;9.00;99.90
62339;DHT22;48368;53.406;6.214;2024-01-27T13:26:37;9.10;99.90
62339;DHT22;48368;53.406;6.214;2024-01-27T13:29:06;9.10;99.90
62339;DHT22;48368;53.406;6.214;2024-01-27T13:31:32;9.20;99.90
62339;DHT22;48368;53.406;6.214;2024-01-27T13:33:58;9.10;99.90
62339;DHT22;48368;53.406;6.214;2024-01-27T13:36:25;9.20;99.90
62339;DHT22;48368;53.406;6.214;2024-01-27T13:38:50;9.30;99.90
62339;DHT22;48368;53.406;6.214;2024-01-27T13:41:17;9.20;99.90
62339;DHT22;48368;53.406;6.214;2024-01-27T13:43:43;9.20;99.90
62339;DHT22;48368;53.406;6.214;2024-01-27T13:46:09;9.10;99.90
62339;DHT22;48368;53.406;6.214;2024-01-27T13:48:35;9.10;99.90
62339;DHT22;48368;53.406;6.214;2024-01-27T13:51:00;9.10;99.90
62339;DHT22;48368;53.406;6.214;2024-01-27T13:53:26;9.10;99.90
62339;DHT22;48368;53.406;6.214;2024-01-27T13:55:52;9.10;99.90
62339;DHT22;48368;53.406;6.214;2024-01-27T13:58:18;9.10;99.90
62339;DHT22;48368;53.406;6.214;2024-01-27T14:00:44;9.00;99.90
62339;DHT22;48368;53.406;6.214;2024-01-27T14:03:09;9.00;99.90
62339;DHT22;48368;53.406;6.214;2024-01-27T14:05:35;9.00;99.90
62339;DHT22;48368;53.406;6.214;2024-01-27T14:08:01;8.90;99.90
62339;DHT22;48368;53.406;6.214;2024-01-27T14:10:27;8.90;99.90
62339;DHT22;48368;53.406;6.214;2024-01-27T14:12:53;8.90;99.90
62339;DHT22;48368;53.406;6.214;2024-01-27T14:15:21;8.70;99.90
62339;DHT22;48368;53.406;6.214;2024-01-27T14:17:47;8.60;99.90
62339;DHT22;48368;53.406;6.214;2024-01-27T14:20:13;8.60;99.90
62339;DHT22;48368;53.406;6.214;2024-01-27T14:22:38;8.50;99.90
62339;DHT22;48368;53.406;6.214;2024-01-27T14:25:07;8.50;99.90
62339;DHT22;48368;53.406;6.214;2024-01-27T14:27:33;8.50;99.90
62339;DHT22;48368;53.406;6.214;2024-01-27T14:30:00;8.50;99.90
62339;DHT22;48368;53.406;6.214;2024-01-27T14:32:26;8.40;99.90
62339;DHT22;48368;53.406;6.214;2024-01-27T14:34:53;8.40;99.90
62339;DHT22;48368;53.406;6.214;2024-01-27T14:37:19;8.30;99.90
62339;DHT22;48368;53.406;6.214;2024-01-27T14:39:46;8.40;99.90
62339;DHT22;48368;53.406;6.214;2024-01-27T14:42:15;8.30;99.90
62339;DHT22;48368;53.406;6.214;2024-01-27T14:44:44;8.30;99.90
62339;DHT22;48368;53.406;6.214;2024-01-27T14:47:13;8.30;99.90
62339;DHT22;48368;53.406;6.214;2024-01-27T14:49:39;8.20;99.90
62339;DHT22;48368;53.406;6.214;2024-01-27T14:52:06;8.20;99.90
62339;DHT22;48368;53.406;6.214;2024-01-27T14:54:36;8.20;99.90
62339;DHT22;48368;53.406;6.214;2024-01-27T14:57:02;8.20;99.90
62339;DHT22;48368;53.406;6.214;2024-01-27T14:59:29;8.10;99.90
62339;DHT22;48368;53.406;6.214;2024-01-27T15:01:55;8.10;99.90
62339;DHT22;48368;53.406;6.214;2024-01-27T15:04:23;8.10;99.90
62339;DHT22;48368;53.406;6.214;2024-01-27T15:06:53;8.00;99.90
62339;DHT22;48368;53.406;6.214;2024-01-27T15:09:19;7.90;99.90
62339;DHT22;48368;53.406;6.214;2024-01-27T15:11:46;7.80;99.90
62339;DHT22;48368;53.406;6.214;2024-01-27T15:14:11;7.80;99.90
62339;DHT22;48368;53.406;6.214;2024-01-27T15:16:37;7.70;99.90
62339;DHT22;48368;53.406;6.214;2024-01-27T15:19:03;7.70;99.90
62339;DHT22;48368;53.406;6.214;2024-01-27T15:21:28;7.70;99.90
62339;DHT22;48368;53.406;6.214;2024-01-27T15:23:57;7.60;99.90
62339;DHT22;48368;53.406;6.214;2024-01-27T15:26:23;7.60;99.90
62339;DHT22;48368;53.406;6.214;2024-01-27T15:28:48;7.50;99.90
62339;DHT22;48368;53.406;6.214;2024-01-27T15:31:14;7.50;99.90
62339;DHT22;48368;53.406;6.214;2024-01-27T15:33:42;7.40;99.90
62339;DHT22;48368;53.406;6.214;2024-01-27T15:36:08;7.40;99.90
62339;DHT22;48368;53.406;6.214;2024-01-27T15:38:34;7.30;99.90
62339;DHT22;48368;53.406;6.214;2024-01-27T15:41:00;7.30;99.90